オスロ の空港の天気 - METARとTAF

オスロ空港 ( ENGM / OSL ) - ノルウェー アーケシュフース県オスロ
飛行場実況気象(Metar)
観測時間01/21 18:50 CET (01/21 17:50 UTC)
風向・風速静穏 0m/s
視程10km以上
天気現象
全天の8割程度の雲 雲底高度 270m
気温-7℃
湿度86%
気圧1014hPa
METARENGM 211750Z 00000KT 9999 BKN009 M07/M09 Q1014 TEMPO BKN010
過去の天気等 Google飛行場航空写真 Wunderground天気予報

過去48時間のMETAR

飛行場予報(TAF)
発表時間: -
21日19時 CET から 確率 40% で
視程500m
天気現象氷霧
全天を覆う雲 鉛直視程 30m
22日1時 CET ~ 22日7時 CET に一時的に
視程10km以上
全天の8割程度の雲 雲底高度 370m
22日7時 CET ~ 22日17時 CET に一時的に
視程2,000m
天気現象弱い雪 もや
全天を覆う雲 雲底高度 120m
TAF ENGM 2118/2218 VRB05KT 3000 BR FEW005 BKN010
PROB40 2118/2124 0500 FZFG VV001
TEMPO 2124/2206 9999 BKN012
TEMPO 2206/2216 2000 -SN BR OVC004